sensor_id;sensor_type;location;lat;lon;timestamp;P1;durP1;ratioP1;P2;durP2;ratioP2
13435;SDS011;6790;49.520;8.504;2023-04-25T00:02:04;5.83;;;3.87;;
13435;SDS011;6790;49.520;8.504;2023-04-25T00:04:30;6.30;;;4.60;;
13435;SDS011;6790;49.520;8.504;2023-04-25T00:06:58;5.23;;;3.83;;
13435;SDS011;6790;49.520;8.504;2023-04-25T00:09:26;5.57;;;3.77;;
13435;SDS011;6790;49.520;8.504;2023-04-25T00:11:52;5.17;;;3.77;;
13435;SDS011;6790;49.520;8.504;2023-04-25T00:14:18;6.20;;;4.00;;
13435;SDS011;6790;49.520;8.504;2023-04-25T00:16:44;5.70;;;3.70;;
13435;SDS011;6790;49.520;8.504;2023-04-25T00:19:09;5.47;;;3.93;;
13435;SDS011;6790;49.520;8.504;2023-04-25T00:21:35;4.83;;;3.57;;
13435;SDS011;6790;49.520;8.504;2023-04-25T00:24:05;5.10;;;3.80;;
13435;SDS011;6790;49.520;8.504;2023-04-25T00:26:33;4.60;;;3.77;;
13435;SDS011;6790;49.520;8.504;2023-04-25T00:29:00;4.10;;;3.67;;
13435;SDS011;6790;49.520;8.504;2023-04-25T00:31:25;4.07;;;3.53;;
13435;SDS011;6790;49.520;8.504;2023-04-25T00:33:51;4.73;;;4.20;;
13435;SDS011;6790;49.520;8.504;2023-04-25T00:36:18;4.70;;;3.97;;
13435;SDS011;6790;49.520;8.504;2023-04-25T00:38:43;4.47;;;3.93;;
13435;SDS011;6790;49.520;8.504;2023-04-25T00:41:09;5.70;;;3.70;;
13435;SDS011;6790;49.520;8.504;2023-04-25T00:43:36;4.83;;;4.13;;
13435;SDS011;6790;49.520;8.504;2023-04-25T00:46:02;4.57;;;3.77;;
13435;SDS011;6790;49.520;8.504;2023-04-25T00:48:28;7.03;;;4.50;;
13435;SDS011;6790;49.520;8.504;2023-04-25T00:50:55;5.27;;;4.00;;
13435;SDS011;6790;49.520;8.504;2023-04-25T00:53:24;5.33;;;4.33;;
13435;SDS011;6790;49.520;8.504;2023-04-25T00:55:51;4.77;;;3.50;;
13435;SDS011;6790;49.520;8.504;2023-04-25T00:58:18;5.57;;;4.10;;
13435;SDS011;6790;49.520;8.504;2023-04-25T01:00:45;5.33;;;3.87;;
13435;SDS011;6790;49.520;8.504;2023-04-25T01:03:13;5.07;;;4.13;;
13435;SDS011;6790;49.520;8.504;2023-04-25T01:05:41;4.30;;;3.73;;
13435;SDS011;6790;49.520;8.504;2023-04-25T01:08:07;4.67;;;3.50;;
13435;SDS011;6790;49.520;8.504;2023-04-25T01:10:33;5.43;;;4.00;;
13435;SDS011;6790;49.520;8.504;2023-04-25T01:12:59;6.30;;;4.00;;
13435;SDS011;6790;49.520;8.504;2023-04-25T01:15:24;4.47;;;3.50;;
13435;SDS011;6790;49.520;8.504;2023-04-25T01:17:50;4.60;;;3.57;;
13435;SDS011;6790;49.520;8.504;2023-04-25T01:20:16;5.57;;;4.40;;
13435;SDS011;6790;49.520;8.504;2023-04-25T01:22:42;5.53;;;4.47;;
13435;SDS011;6790;49.520;8.504;2023-04-25T01:25:08;5.83;;;4.50;;
13435;SDS011;6790;49.520;8.504;2023-04-25T01:27:35;5.30;;;4.00;;
13435;SDS011;6790;49.520;8.504;2023-04-25T01:30:02;4.23;;;3.57;;
13435;SDS011;6790;49.520;8.504;2023-04-25T01:32:29;5.97;;;4.53;;
13435;SDS011;6790;49.520;8.504;2023-04-25T01:35:03;5.97;;;4.40;;
13435;SDS011;6790;49.520;8.504;2023-04-25T01:40:07;7.63;;;5.73;;
13435;SDS011;6790;49.520;8.504;2023-04-25T01:42:36;7.53;;;5.70;;
13435;SDS011;6790;49.520;8.504;2023-04-25T01:45:07;11.00;;;6.33;;
13435;SDS011;6790;49.520;8.504;2023-04-25T01:47:35;6.40;;;5.53;;
13435;SDS011;6790;49.520;8.504;2023-04-25T01:50:02;9.80;;;5.47;;
13435;SDS011;6790;49.520;8.504;2023-04-25T01:52:29;10.27;;;5.43;;
13435;SDS011;6790;49.520;8.504;2023-04-25T01:54:56;8.47;;;6.00;;
13435;SDS011;6790;49.520;8.504;2023-04-25T01:57:25;9.50;;;5.87;;
13435;SDS011;6790;49.520;8.504;2023-04-25T01:59:50;8.93;;;5.80;;
13435;SDS011;6790;49.520;8.504;2023-04-25T02:02:16;8.40;;;6.03;;
13435;SDS011;6790;49.520;8.504;2023-04-25T02:04:42;9.83;;;6.70;;
13435;SDS011;6790;49.520;8.504;2023-04-25T02:07:08;8.90;;;6.50;;
13435;SDS011;6790;49.520;8.504;2023-04-25T02:09:33;12.40;;;6.30;;
13435;SDS011;6790;49.520;8.504;2023-04-25T02:11:59;8.03;;;5.93;;
13435;SDS011;6790;49.520;8.504;2023-04-25T02:14:25;8.93;;;6.17;;
13435;SDS011;6790;49.520;8.504;2023-04-25T02:16:50;10.97;;;6.00;;
13435;SDS011;6790;49.520;8.504;2023-04-25T02:19:16;8.97;;;6.53;;
13435;SDS011;6790;49.520;8.504;2023-04-25T02:21:42;10.43;;;6.93;;
13435;SDS011;6790;49.520;8.504;2023-04-25T02:24:08;11.27;;;7.10;;
13435;SDS011;6790;49.520;8.504;2023-04-25T02:26:33;10.47;;;6.70;;
13435;SDS011;6790;49.520;8.504;2023-04-25T02:28:59;9.33;;;6.73;;
13435;SDS011;6790;49.520;8.504;2023-04-25T02:31:26;11.57;;;7.23;;
13435;SDS011;6790;49.520;8.504;2023-04-25T02:33:51;13.07;;;7.57;;
13435;SDS011;6790;49.520;8.504;2023-04-25T02:36:17;8.43;;;6.67;;
13435;SDS011;6790;49.520;8.504;2023-04-25T02:38:43;15.00;;;8.03;;
13435;SDS011;6790;49.520;8.504;2023-04-25T02:41:08;12.87;;;8.27;;
13435;SDS011;6790;49.520;8.504;2023-04-25T02:43:34;9.70;;;7.13;;
13435;SDS011;6790;49.520;8.504;2023-04-25T02:46:00;10.13;;;7.03;;
13435;SDS011;6790;49.520;8.504;2023-04-25T02:48:25;12.07;;;6.73;;
13435;SDS011;6790;49.520;8.504;2023-04-25T02:50:51;11.70;;;7.43;;
13435;SDS011;6790;49.520;8.504;2023-04-25T02:53:17;11.33;;;7.73;;
13435;SDS011;6790;49.520;8.504;2023-04-25T02:55:42;10.70;;;7.97;;
13435;SDS011;6790;49.520;8.504;2023-04-25T02:58:08;12.60;;;7.67;;
13435;SDS011;6790;49.520;8.504;2023-04-25T03:00:35;12.27;;;7.77;;
13435;SDS011;6790;49.520;8.504;2023-04-25T03:03:00;10.87;;;8.17;;
13435;SDS011;6790;49.520;8.504;2023-04-25T03:05:26;17.60;;;8.27;;
13435;SDS011;6790;49.520;8.504;2023-04-25T03:07:52;11.07;;;7.73;;
13435;SDS011;6790;49.520;8.504;2023-04-25T03:10:17;11.83;;;8.00;;
13435;SDS011;6790;49.520;8.504;2023-04-25T03:12:43;12.20;;;8.23;;
13435;SDS011;6790;49.520;8.504;2023-04-25T03:15:09;11.57;;;7.60;;
13435;SDS011;6790;49.520;8.504;2023-04-25T03:17:35;11.40;;;8.00;;
13435;SDS011;6790;49.520;8.504;2023-04-25T03:20:00;9.97;;;7.90;;
13435;SDS011;6790;49.520;8.504;2023-04-25T03:22:26;10.67;;;7.67;;
13435;SDS011;6790;49.520;8.504;2023-04-25T03:24:52;13.43;;;8.70;;
13435;SDS011;6790;49.520;8.504;2023-04-25T03:27:17;14.33;;;7.80;;
13435;SDS011;6790;49.520;8.504;2023-04-25T03:29:43;11.20;;;8.10;;
13435;SDS011;6790;49.520;8.504;2023-04-25T03:32:09;11.33;;;7.90;;
13435;SDS011;6790;49.520;8.504;2023-04-25T03:34:34;12.60;;;8.13;;
13435;SDS011;6790;49.520;8.504;2023-04-25T03:37:00;12.60;;;7.57;;
13435;SDS011;6790;49.520;8.504;2023-04-25T03:39:26;13.00;;;8.00;;
13435;SDS011;6790;49.520;8.504;2023-04-25T03:41:51;10.70;;;7.53;;
13435;SDS011;6790;49.520;8.504;2023-04-25T03:44:17;12.10;;;8.23;;
13435;SDS011;6790;49.520;8.504;2023-04-25T03:46:43;11.97;;;7.80;;
13435;SDS011;6790;49.520;8.504;2023-04-25T03:49:08;12.87;;;8.50;;
13435;SDS011;6790;49.520;8.504;2023-04-25T03:51:34;10.43;;;7.87;;
13435;SDS011;6790;49.520;8.504;2023-04-25T03:54:00;11.90;;;8.03;;
13435;SDS011;6790;49.520;8.504;2023-04-25T03:56:26;11.73;;;7.20;;
13435;SDS011;6790;49.520;8.504;2023-04-25T03:58:51;12.63;;;8.23;;
13435;SDS011;6790;49.520;8.504;2023-04-25T04:01:17;12.00;;;8.63;;
13435;SDS011;6790;49.520;8.504;2023-04-25T04:03:43;11.07;;;7.47;;
13435;SDS011;6790;49.520;8.504;2023-04-25T04:06:08;14.70;;;8.60;;
13435;SDS011;6790;49.520;8.504;2023-04-25T04:08:35;10.13;;;7.57;;
13435;SDS011;6790;49.520;8.504;2023-04-25T04:11:01;11.97;;;7.87;;
13435;SDS011;6790;49.520;8.504;2023-04-25T04:13:27;15.33;;;8.87;;
13435;SDS011;6790;49.520;8.504;2023-04-25T04:15:53;11.10;;;7.87;;
13435;SDS011;6790;49.520;8.504;2023-04-25T04:18:20;16.03;;;8.40;;
13435;SDS011;6790;49.520;8.504;2023-04-25T04:20:46;14.37;;;8.63;;
13435;SDS011;6790;49.520;8.504;2023-04-25T04:23:12;13.00;;;9.17;;
13435;SDS011;6790;49.520;8.504;2023-04-25T04:25:38;13.00;;;8.60;;
13435;SDS011;6790;49.520;8.504;2023-04-25T04:28:05;17.50;;;9.87;;
13435;SDS011;6790;49.520;8.504;2023-04-25T04:30:32;15.93;;;8.90;;
13435;SDS011;6790;49.520;8.504;2023-04-25T04:33:01;14.47;;;9.43;;
13435;SDS011;6790;49.520;8.504;2023-04-25T04:35:27;14.67;;;9.20;;
13435;SDS011;6790;49.520;8.504;2023-04-25T04:37:53;14.03;;;9.10;;
13435;SDS011;6790;49.520;8.504;2023-04-25T04:40:19;12.83;;;9.30;;
13435;SDS011;6790;49.520;8.504;2023-04-25T04:42:45;17.70;;;9.60;;
13435;SDS011;6790;49.520;8.504;2023-04-25T04:45:11;11.47;;;9.27;;
13435;SDS011;6790;49.520;8.504;2023-04-25T04:47:38;14.00;;;9.10;;
13435;SDS011;6790;49.520;8.504;2023-04-25T04:50:05;13.13;;;8.57;;
13435;SDS011;6790;49.520;8.504;2023-04-25T04:52:34;11.80;;;8.33;;
13435;SDS011;6790;49.520;8.504;2023-04-25T04:55:01;19.77;;;11.53;;
13435;SDS011;6790;49.520;8.504;2023-04-25T04:57:28;24.07;;;16.77;;
13435;SDS011;6790;49.520;8.504;2023-04-25T04:59:54;21.30;;;13.83;;
13435;SDS011;6790;49.520;8.504;2023-04-25T05:02:19;13.77;;;9.60;;
13435;SDS011;6790;49.520;8.504;2023-04-25T05:04:45;15.50;;;9.17;;
13435;SDS011;6790;49.520;8.504;2023-04-25T05:07:11;14.07;;;8.97;;
13435;SDS011;6790;49.520;8.504;2023-04-25T05:09:37;14.53;;;9.63;;
13435;SDS011;6790;49.520;8.504;2023-04-25T05:12:03;13.43;;;8.90;;
13435;SDS011;6790;49.520;8.504;2023-04-25T05:14:29;14.10;;;9.20;;
13435;SDS011;6790;49.520;8.504;2023-04-25T05:16:55;11.93;;;8.67;;
13435;SDS011;6790;49.520;8.504;2023-04-25T05:19:21;16.37;;;9.53;;
13435;SDS011;6790;49.520;8.504;2023-04-25T05:21:47;17.40;;;10.03;;
13435;SDS011;6790;49.520;8.504;2023-04-25T05:24:12;15.57;;;9.77;;
13435;SDS011;6790;49.520;8.504;2023-04-25T05:26:38;13.97;;;9.40;;
13435;SDS011;6790;49.520;8.504;2023-04-25T05:29:04;15.50;;;9.83;;
13435;SDS011;6790;49.520;8.504;2023-04-25T05:31:30;13.83;;;9.47;;
13435;SDS011;6790;49.520;8.504;2023-04-25T05:33:56;15.30;;;9.90;;
13435;SDS011;6790;49.520;8.504;2023-04-25T05:36:22;27.57;;;16.47;;
13435;SDS011;6790;49.520;8.504;2023-04-25T05:38:48;14.10;;;10.00;;
13435;SDS011;6790;49.520;8.504;2023-04-25T05:41:14;15.33;;;10.83;;
13435;SDS011;6790;49.520;8.504;2023-04-25T05:43:39;17.40;;;9.93;;
13435;SDS011;6790;49.520;8.504;2023-04-25T05:46:10;18.17;;;9.83;;
13435;SDS011;6790;49.520;8.504;2023-04-25T05:48:36;16.67;;;9.57;;
13435;SDS011;6790;49.520;8.504;2023-04-25T05:51:02;14.87;;;9.30;;
13435;SDS011;6790;49.520;8.504;2023-04-25T05:53:28;13.83;;;8.73;;
13435;SDS011;6790;49.520;8.504;2023-04-25T05:55:54;15.37;;;10.17;;
13435;SDS011;6790;49.520;8.504;2023-04-25T05:58:19;15.20;;;9.53;;
13435;SDS011;6790;49.520;8.504;2023-04-25T06:00:45;13.60;;;8.77;;
13435;SDS011;6790;49.520;8.504;2023-04-25T06:03:11;14.47;;;8.77;;
13435;SDS011;6790;49.520;8.504;2023-04-25T06:05:39;17.90;;;9.27;;
13435;SDS011;6790;49.520;8.504;2023-04-25T06:08:06;11.97;;;7.90;;
13435;SDS011;6790;49.520;8.504;2023-04-25T06:10:32;13.77;;;7.97;;
13435;SDS011;6790;49.520;8.504;2023-04-25T06:12:58;12.97;;;7.93;;
13435;SDS011;6790;49.520;8.504;2023-04-25T06:15:24;10.90;;;7.73;;
13435;SDS011;6790;49.520;8.504;2023-04-25T06:17:50;11.67;;;8.67;;
13435;SDS011;6790;49.520;8.504;2023-04-25T06:20:15;12.27;;;8.03;;
13435;SDS011;6790;49.520;8.504;2023-04-25T06:22:41;12.47;;;8.13;;
13435;SDS011;6790;49.520;8.504;2023-04-25T06:25:07;15.43;;;7.50;;
13435;SDS011;6790;49.520;8.504;2023-04-25T06:27:33;12.20;;;7.27;;
13435;SDS011;6790;49.520;8.504;2023-04-25T06:29:59;14.30;;;6.93;;
13435;SDS011;6790;49.520;8.504;2023-04-25T06:32:25;11.50;;;7.23;;
13435;SDS011;6790;49.520;8.504;2023-04-25T06:34:52;13.50;;;6.90;;
13435;SDS011;6790;49.520;8.504;2023-04-25T06:37:18;10.77;;;7.67;;
13435;SDS011;6790;49.520;8.504;2023-04-25T06:39:43;11.83;;;7.50;;
13435;SDS011;6790;49.520;8.504;2023-04-25T06:42:09;14.80;;;7.33;;
13435;SDS011;6790;49.520;8.504;2023-04-25T06:44:35;11.83;;;7.53;;
13435;SDS011;6790;49.520;8.504;2023-04-25T06:47:01;8.93;;;6.53;;
13435;SDS011;6790;49.520;8.504;2023-04-25T06:49:27;16.47;;;8.00;;
13435;SDS011;6790;49.520;8.504;2023-04-25T06:51:52;13.53;;;7.77;;
13435;SDS011;6790;49.520;8.504;2023-04-25T06:54:18;15.97;;;7.77;;
13435;SDS011;6790;49.520;8.504;2023-04-25T06:56:44;12.03;;;7.57;;
13435;SDS011;6790;49.520;8.504;2023-04-25T06:59:09;13.47;;;6.33;;
13435;SDS011;6790;49.520;8.504;2023-04-25T07:01:35;11.37;;;6.17;;
13435;SDS011;6790;49.520;8.504;2023-04-25T07:04:01;8.30;;;6.07;;
13435;SDS011;6790;49.520;8.504;2023-04-25T07:06:26;14.67;;;6.70;;
13435;SDS011;6790;49.520;8.504;2023-04-25T07:08:52;13.00;;;6.80;;
13435;SDS011;6790;49.520;8.504;2023-04-25T07:11:19;11.87;;;5.90;;
13435;SDS011;6790;49.520;8.504;2023-04-25T07:13:44;14.43;;;6.63;;
13435;SDS011;6790;49.520;8.504;2023-04-25T07:16:10;16.27;;;6.90;;
13435;SDS011;6790;49.520;8.504;2023-04-25T07:18:36;10.97;;;6.60;;
13435;SDS011;6790;49.520;8.504;2023-04-25T07:21:02;11.33;;;6.13;;
13435;SDS011;6790;49.520;8.504;2023-04-25T07:23:27;17.53;;;6.17;;
13435;SDS011;6790;49.520;8.504;2023-04-25T07:25:53;12.50;;;6.40;;
13435;SDS011;6790;49.520;8.504;2023-04-25T07:28:19;15.37;;;6.10;;
13435;SDS011;6790;49.520;8.504;2023-04-25T07:30:45;12.80;;;6.93;;
13435;SDS011;6790;49.520;8.504;2023-04-25T07:33:10;14.20;;;6.77;;
13435;SDS011;6790;49.520;8.504;2023-04-25T07:35:36;12.90;;;6.43;;
13435;SDS011;6790;49.520;8.504;2023-04-25T07:38:02;15.20;;;6.60;;
13435;SDS011;6790;49.520;8.504;2023-04-25T07:40:28;16.97;;;6.10;;
13435;SDS011;6790;49.520;8.504;2023-04-25T07:42:55;7.97;;;5.80;;
13435;SDS011;6790;49.520;8.504;2023-04-25T07:45:20;11.33;;;6.07;;
13435;SDS011;6790;49.520;8.504;2023-04-25T07:47:46;9.87;;;6.20;;
13435;SDS011;6790;49.520;8.504;2023-04-25T07:50:11;11.70;;;5.83;;
13435;SDS011;6790;49.520;8.504;2023-04-25T07:52:37;12.23;;;6.27;;
13435;SDS011;6790;49.520;8.504;2023-04-25T07:55:03;11.80;;;6.43;;
13435;SDS011;6790;49.520;8.504;2023-04-25T07:57:29;8.07;;;5.73;;
13435;SDS011;6790;49.520;8.504;2023-04-25T07:59:55;12.37;;;5.90;;
13435;SDS011;6790;49.520;8.504;2023-04-25T08:02:21;14.63;;;5.80;;
13435;SDS011;6790;49.520;8.504;2023-04-25T08:04:47;12.57;;;6.33;;
13435;SDS011;6790;49.520;8.504;2023-04-25T08:07:14;10.93;;;6.10;;
13435;SDS011;6790;49.520;8.504;2023-04-25T08:09:40;9.50;;;5.60;;
13435;SDS011;6790;49.520;8.504;2023-04-25T08:12:05;13.60;;;6.13;;
13435;SDS011;6790;49.520;8.504;2023-04-25T08:14:31;8.60;;;5.53;;
13435;SDS011;6790;49.520;8.504;2023-04-25T08:17:04;10.03;;;5.43;;
13435;SDS011;6790;49.520;8.504;2023-04-25T08:19:30;11.90;;;6.03;;
13435;SDS011;6790;49.520;8.504;2023-04-25T08:21:56;11.77;;;6.07;;
13435;SDS011;6790;49.520;8.504;2023-04-25T08:24:22;10.83;;;5.53;;
13435;SDS011;6790;49.520;8.504;2023-04-25T08:26:48;9.37;;;5.80;;
13435;SDS011;6790;49.520;8.504;2023-04-25T08:29:14;9.33;;;5.37;;
13435;SDS011;6790;49.520;8.504;2023-04-25T08:31:40;10.67;;;5.10;;
13435;SDS011;6790;49.520;8.504;2023-04-25T08:34:06;12.30;;;5.00;;
13435;SDS011;6790;49.520;8.504;2023-04-25T08:36:31;19.97;;;6.07;;
13435;SDS011;6790;49.520;8.504;2023-04-25T08:38:57;8.90;;;4.83;;
13435;SDS011;6790;49.520;8.504;2023-04-25T08:41:23;7.77;;;4.50;;
13435;SDS011;6790;49.520;8.504;2023-04-25T08:43:50;8.13;;;5.10;;
13435;SDS011;6790;49.520;8.504;2023-04-25T08:46:18;10.97;;;5.23;;
13435;SDS011;6790;49.520;8.504;2023-04-25T08:48:45;8.73;;;4.63;;
13435;SDS011;6790;49.520;8.504;2023-04-25T08:51:45;7.73;;;4.20;;
13435;SDS011;6790;49.520;8.504;2023-04-25T08:54:12;10.60;;;5.10;;
13435;SDS011;6790;49.520;8.504;2023-04-25T08:56:40;9.50;;;4.20;;
13435;SDS011;6790;49.520;8.504;2023-04-25T08:59:10;12.70;;;5.20;;
13435;SDS011;6790;49.520;8.504;2023-04-25T09:01:36;7.73;;;4.70;;
13435;SDS011;6790;49.520;8.504;2023-04-25T09:04:02;6.43;;;4.20;;
13435;SDS011;6790;49.520;8.504;2023-04-25T09:06:29;8.97;;;4.87;;
13435;SDS011;6790;49.520;8.504;2023-04-25T09:09:01;8.30;;;4.87;;
13435;SDS011;6790;49.520;8.504;2023-04-25T09:11:31;7.50;;;4.60;;
13435;SDS011;6790;49.520;8.504;2023-04-25T09:14:20;7.37;;;4.60;;
13435;SDS011;6790;49.520;8.504;2023-04-25T09:19:21;6.53;;;4.30;;
13435;SDS011;6790;49.520;8.504;2023-04-25T09:21:48;9.43;;;4.13;;
13435;SDS011;6790;49.520;8.504;2023-04-25T09:24:15;8.57;;;4.20;;
13435;SDS011;6790;49.520;8.504;2023-04-25T09:26:40;6.90;;;4.27;;
13435;SDS011;6790;49.520;8.504;2023-04-25T09:29:06;9.53;;;4.10;;
13435;SDS011;6790;49.520;8.504;2023-04-25T09:31:33;14.30;;;4.93;;
13435;SDS011;6790;49.520;8.504;2023-04-25T09:33:59;7.53;;;4.03;;
13435;SDS011;6790;49.520;8.504;2023-04-25T09:36:30;8.63;;;4.53;;
13435;SDS011;6790;49.520;8.504;2023-04-25T09:38:57;8.67;;;3.67;;
13435;SDS011;6790;49.520;8.504;2023-04-25T09:41:25;10.00;;;4.40;;
13435;SDS011;6790;49.520;8.504;2023-04-25T09:43:51;9.17;;;4.20;;
13435;SDS011;6790;49.520;8.504;2023-04-25T09:46:17;9.07;;;4.30;;
13435;SDS011;6790;49.520;8.504;2023-04-25T09:48:49;10.20;;;4.33;;
13435;SDS011;6790;49.520;8.504;2023-04-25T09:51:16;10.27;;;4.53;;
13435;SDS011;6790;49.520;8.504;2023-04-25T09:53:45;8.30;;;4.50;;
13435;SDS011;6790;49.520;8.504;2023-04-25T09:56:14;6.57;;;3.97;;
13435;SDS011;6790;49.520;8.504;2023-04-25T09:58:41;10.70;;;4.30;;
13435;SDS011;6790;49.520;8.504;2023-04-25T10:01:07;6.83;;;3.93;;
13435;SDS011;6790;49.520;8.504;2023-04-25T10:03:37;8.30;;;4.00;;
13435;SDS011;6790;49.520;8.504;2023-04-25T10:06:07;9.50;;;4.40;;
13435;SDS011;6790;49.520;8.504;2023-04-25T10:08:44;7.17;;;4.07;;
13435;SDS011;6790;49.520;8.504;2023-04-25T10:11:11;7.67;;;4.13;;
13435;SDS011;6790;49.520;8.504;2023-04-25T10:13:40;10.40;;;4.37;;
13435;SDS011;6790;49.520;8.504;2023-04-25T10:16:07;7.00;;;4.40;;
13435;SDS011;6790;49.520;8.504;2023-04-25T10:18:33;8.87;;;4.50;;
13435;SDS011;6790;49.520;8.504;2023-04-25T10:21:00;9.90;;;4.20;;
13435;SDS011;6790;49.520;8.504;2023-04-25T10:23:29;8.03;;;3.80;;
13435;SDS011;6790;49.520;8.504;2023-04-25T10:25:56;9.10;;;4.67;;
13435;SDS011;6790;49.520;8.504;2023-04-25T10:28:22;9.03;;;3.93;;
13435;SDS011;6790;49.520;8.504;2023-04-25T10:31:04;7.53;;;3.87;;
13435;SDS011;6790;49.520;8.504;2023-04-25T10:33:34;6.70;;;3.83;;
13435;SDS011;6790;49.520;8.504;2023-04-25T10:38:40;8.17;;;3.37;;
13435;SDS011;6790;49.520;8.504;2023-04-25T10:41:08;5.20;;;4.20;;
13435;SDS011;6790;49.520;8.504;2023-04-25T10:43:42;5.33;;;3.17;;
13435;SDS011;6790;49.520;8.504;2023-04-25T10:46:16;5.63;;;3.57;;
13435;SDS011;6790;49.520;8.504;2023-04-25T10:48:51;6.30;;;3.23;;
13435;SDS011;6790;49.520;8.504;2023-04-25T10:51:22;10.43;;;3.40;;
13435;SDS011;6790;49.520;8.504;2023-04-25T10:53:57;5.37;;;3.27;;
13435;SDS011;6790;49.520;8.504;2023-04-25T10:56:29;6.03;;;3.17;;
13435;SDS011;6790;49.520;8.504;2023-04-25T10:59:10;6.67;;;3.50;;
13435;SDS011;6790;49.520;8.504;2023-04-25T11:01:41;5.73;;;3.40;;
13435;SDS011;6790;49.520;8.504;2023-04-25T11:04:22;7.50;;;3.00;;
13435;SDS011;6790;49.520;8.504;2023-04-25T11:09:41;4.13;;;2.83;;
13435;SDS011;6790;49.520;8.504;2023-04-25T11:12:10;4.30;;;2.87;;
13435;SDS011;6790;49.520;8.504;2023-04-25T11:14:39;7.20;;;2.83;;
13435;SDS011;6790;49.520;8.504;2023-04-25T11:17:04;4.00;;;2.67;;
13435;SDS011;6790;49.520;8.504;2023-04-25T11:19:31;4.57;;;3.07;;
13435;SDS011;6790;49.520;8.504;2023-04-25T11:21:57;5.87;;;2.80;;
13435;SDS011;6790;49.520;8.504;2023-04-25T11:24:25;8.67;;;3.20;;
13435;SDS011;6790;49.520;8.504;2023-04-25T11:26:59;5.03;;;2.83;;
13435;SDS011;6790;49.520;8.504;2023-04-25T11:29:27;4.20;;;2.80;;
13435;SDS011;6790;49.520;8.504;2023-04-25T11:31:58;5.13;;;2.90;;
13435;SDS011;6790;49.520;8.504;2023-04-25T11:34:25;5.60;;;3.43;;
13435;SDS011;6790;49.520;8.504;2023-04-25T11:36:51;4.63;;;3.30;;
13435;SDS011;6790;49.520;8.504;2023-04-25T11:39:18;7.53;;;3.30;;
13435;SDS011;6790;49.520;8.504;2023-04-25T11:41:45;6.07;;;3.20;;
13435;SDS011;6790;49.520;8.504;2023-04-25T11:44:12;6.53;;;3.07;;
13435;SDS011;6790;49.520;8.504;2023-04-25T11:46:41;6.33;;;3.10;;
13435;SDS011;6790;49.520;8.504;2023-04-25T11:49:08;6.60;;;3.57;;
13435;SDS011;6790;49.520;8.504;2023-04-25T11:51:38;4.57;;;3.43;;
13435;SDS011;6790;49.520;8.504;2023-04-25T11:54:12;6.33;;;3.30;;
13435;SDS011;6790;49.520;8.504;2023-04-25T11:56:42;4.43;;;3.23;;
13435;SDS011;6790;49.520;8.504;2023-04-25T11:59:11;3.77;;;2.93;;
13435;SDS011;6790;49.520;8.504;2023-04-25T12:01:38;4.43;;;3.33;;
13435;SDS011;6790;49.520;8.504;2023-04-25T12:04:10;5.00;;;3.50;;
13435;SDS011;6790;49.520;8.504;2023-04-25T12:06:38;5.10;;;3.33;;
13435;SDS011;6790;49.520;8.504;2023-04-25T12:09:07;4.00;;;3.20;;
13435;SDS011;6790;49.520;8.504;2023-04-25T12:14:31;6.77;;;3.43;;
13435;SDS011;6790;49.520;8.504;2023-04-25T12:16:59;4.80;;;3.40;;
13435;SDS011;6790;49.520;8.504;2023-04-25T12:19:34;4.20;;;3.33;;
13435;SDS011;6790;49.520;8.504;2023-04-25T12:22:02;4.87;;;3.07;;
13435;SDS011;6790;49.520;8.504;2023-04-25T12:24:29;5.87;;;3.57;;
13435;SDS011;6790;49.520;8.504;2023-04-25T12:27:05;5.70;;;3.93;;
13435;SDS011;6790;49.520;8.504;2023-04-25T12:29:33;4.60;;;3.67;;
13435;SDS011;6790;49.520;8.504;2023-04-25T12:31:59;6.13;;;3.97;;
13435;SDS011;6790;49.520;8.504;2023-04-25T12:34:26;4.87;;;3.70;;
13435;SDS011;6790;49.520;8.504;2023-04-25T12:36:53;6.23;;;3.87;;
13435;SDS011;6790;49.520;8.504;2023-04-25T12:39:20;6.03;;;3.80;;
13435;SDS011;6790;49.520;8.504;2023-04-25T12:41:47;7.93;;;3.90;;
13435;SDS011;6790;49.520;8.504;2023-04-25T12:44:19;5.03;;;3.63;;
13435;SDS011;6790;49.520;8.504;2023-04-25T12:46:45;8.40;;;3.77;;
13435;SDS011;6790;49.520;8.504;2023-04-25T12:49:12;5.57;;;3.87;;
13435;SDS011;6790;49.520;8.504;2023-04-25T12:51:38;5.10;;;3.37;;
13435;SDS011;6790;49.520;8.504;2023-04-25T12:54:04;5.00;;;3.90;;
13435;SDS011;6790;49.520;8.504;2023-04-25T12:56:34;7.13;;;3.90;;
13435;SDS011;6790;49.520;8.504;2023-04-25T12:59:00;5.70;;;3.60;;
13435;SDS011;6790;49.520;8.504;2023-04-25T13:01:28;8.17;;;4.20;;
13435;SDS011;6790;49.520;8.504;2023-04-25T13:03:54;6.20;;;3.93;;
13435;SDS011;6790;49.520;8.504;2023-04-25T13:06:20;5.53;;;3.70;;
13435;SDS011;6790;49.520;8.504;2023-04-25T13:08:47;5.20;;;3.70;;
13435;SDS011;6790;49.520;8.504;2023-04-25T13:11:13;5.97;;;3.93;;
13435;SDS011;6790;49.520;8.504;2023-04-25T13:13:42;5.50;;;3.97;;
13435;SDS011;6790;49.520;8.504;2023-04-25T13:16:09;5.40;;;3.67;;
13435;SDS011;6790;49.520;8.504;2023-04-25T13:18:35;5.33;;;3.80;;
13435;SDS011;6790;49.520;8.504;2023-04-25T13:21:01;6.87;;;3.80;;
13435;SDS011;6790;49.520;8.504;2023-04-25T13:23:27;6.37;;;3.60;;
13435;SDS011;6790;49.520;8.504;2023-04-25T13:25:54;7.50;;;3.90;;
13435;SDS011;6790;49.520;8.504;2023-04-25T13:28:22;7.07;;;3.60;;
13435;SDS011;6790;49.520;8.504;2023-04-25T13:30:49;8.83;;;4.07;;
13435;SDS011;6790;49.520;8.504;2023-04-25T13:33:18;7.40;;;4.07;;
13435;SDS011;6790;49.520;8.504;2023-04-25T13:35:45;4.57;;;3.70;;
13435;SDS011;6790;49.520;8.504;2023-04-25T13:38:19;3.87;;;3.30;;
13435;SDS011;6790;49.520;8.504;2023-04-25T13:40:49;8.37;;;4.10;;
13435;SDS011;6790;49.520;8.504;2023-04-25T13:43:18;8.40;;;5.03;;
13435;SDS011;6790;49.520;8.504;2023-04-25T13:45:45;7.47;;;4.17;;
13435;SDS011;6790;49.520;8.504;2023-04-25T13:48:11;8.20;;;4.80;;
13435;SDS011;6790;49.520;8.504;2023-04-25T13:50:37;10.07;;;4.17;;
13435;SDS011;6790;49.520;8.504;2023-04-25T13:53:02;7.30;;;3.80;;
13435;SDS011;6790;49.520;8.504;2023-04-25T13:55:28;4.97;;;3.60;;
13435;SDS011;6790;49.520;8.504;2023-04-25T13:57:55;5.90;;;3.63;;
13435;SDS011;6790;49.520;8.504;2023-04-25T14:00:20;4.10;;;3.70;;
13435;SDS011;6790;49.520;8.504;2023-04-25T14:02:46;6.83;;;3.57;;
13435;SDS011;6790;49.520;8.504;2023-04-25T14:05:12;7.23;;;3.33;;
13435;SDS011;6790;49.520;8.504;2023-04-25T14:07:38;8.23;;;3.83;;
13435;SDS011;6790;49.520;8.504;2023-04-25T14:10:04;6.07;;;3.30;;
13435;SDS011;6790;49.520;8.504;2023-04-25T14:12:31;7.87;;;3.90;;
13435;SDS011;6790;49.520;8.504;2023-04-25T14:14:57;6.70;;;3.20;;
13435;SDS011;6790;49.520;8.504;2023-04-25T14:17:22;6.20;;;3.53;;
13435;SDS011;6790;49.520;8.504;2023-04-25T14:19:49;7.00;;;3.30;;
13435;SDS011;6790;49.520;8.504;2023-04-25T14:22:15;8.00;;;3.83;;
13435;SDS011;6790;49.520;8.504;2023-04-25T14:24:40;11.47;;;3.57;;
13435;SDS011;6790;49.520;8.504;2023-04-25T14:27:06;8.03;;;3.23;;
13435;SDS011;6790;49.520;8.504;2023-04-25T14:29:32;6.37;;;3.47;;
13435;SDS011;6790;49.520;8.504;2023-04-25T14:31:59;9.27;;;3.77;;
13435;SDS011;6790;49.520;8.504;2023-04-25T14:34:25;4.30;;;2.80;;
13435;SDS011;6790;49.520;8.504;2023-04-25T14:36:51;6.97;;;3.80;;
13435;SDS011;6790;49.520;8.504;2023-04-25T14:39:17;5.13;;;3.20;;
13435;SDS011;6790;49.520;8.504;2023-04-25T14:41:43;4.47;;;2.87;;
13435;SDS011;6790;49.520;8.504;2023-04-25T14:44:09;6.63;;;3.67;;
13435;SDS011;6790;49.520;8.504;2023-04-25T14:46:35;4.77;;;3.37;;
13435;SDS011;6790;49.520;8.504;2023-04-25T14:49:01;7.00;;;3.37;;
13435;SDS011;6790;49.520;8.504;2023-04-25T14:51:28;8.50;;;3.50;;
13435;SDS011;6790;49.520;8.504;2023-04-25T14:53:54;7.87;;;3.37;;
13435;SDS011;6790;49.520;8.504;2023-04-25T14:56:20;8.93;;;3.13;;
13435;SDS011;6790;49.520;8.504;2023-04-25T14:58:46;6.20;;;3.30;;
13435;SDS011;6790;49.520;8.504;2023-04-25T15:01:12;7.97;;;3.40;;
13435;SDS011;6790;49.520;8.504;2023-04-25T15:03:42;5.10;;;3.10;;
13435;SDS011;6790;49.520;8.504;2023-04-25T15:06:07;6.07;;;3.27;;
13435;SDS011;6790;49.520;8.504;2023-04-25T15:08:33;5.50;;;2.90;;